This is the latest recevied weather packets stored in our database for station/object EA3HRE-13. If no packets are shown the sender has not sent any weather packets the latest 10 day(s).
| Time | Temp. | Humidity | Pressure | Rain* | Wind** | Luminosity | Snow |
|---|---|---|---|---|---|---|---|
| 1777801733 | 19.44° C | 100% | 1016.6 hPa | 0 mm | - | - | - |
| 1777801133 | 19.44° C | 100% | 1016.8 hPa | 0 mm | - | - | - |
| 1777800503 | 19.44° C | 100% | 1016.8 hPa | 0 mm | - | - | - |
| 1777799903 | 20° C | 100% | 1017.2 hPa | 0 mm | - | - | - |
| 1777799303 | 21.11° C | 100% | 1017.1 hPa | 0 mm | - | - | - |
| 1777798702 | 21.11° C | 100% | 1017 hPa | 0 mm | - | - | - |
| 1777798102 | 20.56° C | 100% | 1016.7 hPa | 0 mm | - | - | - |
| 1777797502 | 20.56° C | 100% | 1016.6 hPa | 0 mm | - | - | - |
| 1777796902 | 20.56° C | 100% | 1016.5 hPa | 0 mm | - | - | - |
| 1777796302 | 20° C | 100% | 1016.6 hPa | 0 mm | - | - | - |
| 1777795702 | 20° C | 100% | 1016.8 hPa | 0 mm | - | - | - |
| 1777795102 | 20° C | 100% | 1016.9 hPa | 0 mm | - | - | - |
| 1777794502 | 20° C | 100% | 1017 hPa | 0 mm | - | - | - |
| 1777793902 | 19.44° C | 100% | 1017 hPa | 0 mm | - | - | - |
| 1777793302 | 19.44° C | 100% | 1016.8 hPa | 0 mm | - | - | - |
| 1777792671 | 18.89° C | 100% | 1016.7 hPa | 0 mm | - | - | - |
| 1777792071 | 18.89° C | 100% | 1016.8 hPa | 0 mm | - | - | - |
| 1777791471 | 18.33° C | 100% | 1016.7 hPa | 0 mm | - | - | - |
| 1777790841 | 18.33° C | 100% | 1016.8 hPa | 0 mm | - | - | - |
| 1777790241 | 17.78° C | 100% | 1016.9 hPa | 0 mm | - | - | - |
| 1777789641 | 17.22° C | 100% | 1016.8 hPa | 0 mm | - | - | - |
| 1777789041 | 17.22° C | 100% | 1016.7 hPa | 0 mm | - | - | - |
| 1777788441 | 17.78° C | 100% | 1086.1 hPa | 0 mm | - | - | - |
| 1777787841 | 16.67° C | 100% | 1017 hPa | 0 mm | - | - | - |
| 1777787230 | 16.67° C | 100% | 1014.1 hPa | 0 mm | - | - | - |
* Rain latest hour (hover to see other rain measurements)
** Current wind speed in m/s (hover to see current wind gust speed)